Time;durP1;ratioP1;P1;durP2;ratioP2;P2;SDS_P1;SDS_P2;PMS_P1;PMS_P2;Temp;Humidity;BMP_temperature;BMP_pressure;BME280_temperature;BME280_humidity;BME280_pressure;Samples;Min_cycle;Max_cycle;Signal;HPM_P1;HPM_P2
2022/02/21 00:00:50;;;;;;;3.83;3.73;;;10.40;44.30;;;;;;5073788;28;20917;-76
2022/02/21 00:03:20;;;;;;;3.53;3.43;;;10.50;44.20;;;;;;5073603;28;20450;-76
2022/02/21 00:05:46;;;;;;;5.00;3.90;;;10.50;43.90;;;;;;5073161;28;20210;-76
2022/02/21 00:08:12;;;;;;;3.27;3.17;;;10.50;44.00;;;;;;5073556;28;20412;-81
2022/02/21 00:10:38;;;;;;;5.80;3.77;;;10.50;43.50;;;;;;5073372;28;20481;-81
2022/02/21 00:13:03;;;;;;;3.87;3.60;;;10.50;43.40;;;;;;5073469;28;20175;-81
2022/02/21 00:15:29;;;;;;;3.60;3.30;;;10.60;43.20;;;;;;5073510;28;20542;-81
2022/02/21 00:17:56;;;;;;;3.57;3.37;;;10.50;43.50;;;;;;5073573;28;20698;-81
2022/02/21 00:20:22;;;;;;;3.50;3.40;;;10.60;43.00;;;;;;5072827;28;20216;-81
2022/02/21 00:22:49;;;;;;;3.40;3.20;;;10.60;42.90;;;;;;5073791;28;20417;-82
2022/02/21 00:25:14;;;;;;;3.47;3.37;;;10.60;42.80;;;;;;5072478;28;20472;-82
2022/02/21 00:27:40;;;;;;;3.73;3.63;;;10.60;42.10;;;;;;5073883;28;20905;-82
2022/02/21 00:30:06;;;;;;;3.63;3.53;;;10.60;42.10;;;;;;5073253;28;20183;-82
2022/02/21 00:32:32;;;;;;;3.93;3.83;;;10.60;42.80;;;;;;5072772;28;20243;-82
2022/02/21 00:34:57;;;;;;;3.57;3.37;;;10.60;43.30;;;;;;5072500;28;20416;-82
2022/02/21 00:37:23;;;;;;;4.10;3.80;;;10.70;43.10;;;;;;5072532;28;20174;-82
2022/02/21 00:39:50;;;;;;;3.70;3.50;;;10.60;43.90;;;;;;5072844;28;20186;-82
2022/02/21 00:42:21;;;;;;;3.60;3.50;;;10.60;44.20;;;;;;5072276;28;20429;-82
2022/02/21 00:44:48;;;;;;;4.10;3.80;;;10.60;45.00;;;;;;5072391;28;20456;-82
2022/02/21 00:47:14;;;;;;;3.57;3.47;;;10.50;45.80;;;;;;5073223;28;20982;-81
2022/02/21 00:49:40;;;;;;;4.00;3.90;;;10.60;45.40;;;;;;5072995;28;20896;-82
2022/02/21 00:52:06;;;;;;;4.30;3.90;;;10.50;45.60;;;;;;5073080;28;20508;-82
2022/02/21 00:54:31;;;;;;;4.33;4.10;;;10.50;46.80;;;;;;5072405;28;20795;-82
2022/02/21 00:56:57;;;;;;;4.00;3.90;;;10.40;47.90;;;;;;5072447;28;20891;-82
2022/02/21 00:59:23;;;;;;;3.67;3.47;;;10.40;48.10;;;;;;5072233;28;20182;-82
2022/02/21 01:01:48;;;;;;;4.20;3.90;;;10.40;47.70;;;;;;5072108;28;20231;-80
2022/02/21 01:04:14;;;;;;;5.80;3.63;;;10.40;47.70;;;;;;5072244;28;20198;-80
2022/02/21 01:06:40;;;;;;;3.97;3.77;;;10.40;48.70;;;;;;5072102;28;20224;-80
2022/02/21 01:09:05;;;;;;;3.80;3.70;;;10.40;47.90;;;;;;5072110;28;20175;-80
2022/02/21 01:11:31;;;;;;;3.87;3.67;;;10.30;49.20;;;;;;5071804;28;20638;-80
2022/02/21 01:13:58;;;;;;;3.97;3.50;;;10.30;48.90;;;;;;5071712;28;20174;-81
2022/02/21 01:16:24;;;;;;;3.53;3.33;;;10.30;47.70;;;;;;5072240;28;20191;-81
2022/02/21 01:18:51;;;;;;;3.77;3.57;;;10.40;48.70;;;;;;5072022;28;20503;-81
2022/02/21 01:21:17;;;;;;;4.47;4.13;;;10.30;48.30;;;;;;5071830;28;20913;-81
2022/02/21 01:23:42;;;;;;;3.80;3.50;;;10.30;48.90;;;;;;5071418;28;20420;-81
2022/02/21 01:26:08;;;;;;;3.30;3.13;;;10.30;48.20;;;;;;5072207;28;20455;-81
2022/02/21 01:28:34;;;;;;;5.33;3.80;;;10.30;49.30;;;;;;5071803;28;20182;-81
2022/02/21 01:30:59;;;;;;;3.50;3.20;;;10.20;49.50;;;;;;5071805;28;20171;-81
2022/02/21 01:33:25;;;;;;;3.83;3.53;;;10.20;50.00;;;;;;5071858;28;20455;-82
2022/02/21 01:35:51;;;;;;;5.00;3.40;;;10.20;49.40;;;;;;5071340;28;20183;-81
2022/02/21 01:38:17;;;;;;;3.50;3.40;;;10.10;49.70;;;;;;5071976;28;20665;-81
2022/02/21 01:40:43;;;;;;;3.20;3.10;;;10.10;49.70;;;;;;5071502;28;20441;-81
2022/02/21 01:43:08;;;;;;;3.73;3.53;;;10.10;49.40;;;;;;5071747;28;20183;-81
2022/02/21 01:45:34;;;;;;;5.10;4.40;;;10.10;49.90;;;;;;5071240;28;20521;-81
2022/02/21 01:48:00;;;;;;;3.70;3.40;;;10.10;50.20;;;;;;5071753;28;20291;-81
2022/02/21 01:50:25;;;;;;;5.53;3.90;;;10.10;50.40;;;;;;5071327;28;20174;-81
2022/02/21 01:52:51;;;;;;;3.40;3.30;;;10.10;49.70;;;;;;5071606;28;20539;-81
2022/02/21 01:55:17;;;;;;;3.10;3.00;;;10.00;50.50;;;;;;5072149;28;20347;-81
2022/02/21 01:57:42;;;;;;;3.37;3.27;;;10.10;50.30;;;;;;5071612;28;20653;-81
2022/02/21 02:00:09;;;;;;;4.77;3.43;;;10.10;49.80;;;;;;5071485;28;20206;-81
2022/02/21 02:02:34;;;;;;;3.33;3.23;;;10.10;49.50;;;;;;5070741;28;20183;-81
2022/02/21 02:05:02;;;;;;;3.40;3.30;;;10.10;49.40;;;;;;5070908;28;20463;-81
2022/02/21 02:07:28;;;;;;;3.70;3.60;;;10.10;49.30;;;;;;5071071;28;20178;-81
2022/02/21 02:09:53;;;;;;;3.40;3.20;;;10.10;48.90;;;;;;5071219;28;20419;-81
2022/02/21 02:12:19;;;;;;;3.63;3.43;;;10.10;48.80;;;;;;5071558;28;20580;-81
2022/02/21 02:14:44;;;;;;;3.87;3.67;;;10.10;48.80;;;;;;5071128;28;20656;-81
2022/02/21 02:17:15;;;;;;;3.70;3.40;;;10.10;48.00;;;;;;5070246;28;20194;-81
2022/02/21 02:19:43;;;;;;;3.33;3.23;;;10.10;48.40;;;;;;5071296;28;20543;-81
2022/02/21 02:22:13;;;;;;;3.50;3.40;;;10.10;48.30;;;;;;5071245;28;20916;-81
2022/02/21 02:24:41;;;;;;;4.50;3.60;;;10.00;48.30;;;;;;5070843;28;20460;-81
2022/02/21 02:27:08;;;;;;;3.53;3.23;;;10.00;48.00;;;;;;5070820;28;20466;-81
2022/02/21 02:29:35;;;;;;;5.07;3.40;;;10.10;48.10;;;;;;5071154;28;20424;-81
2022/02/21 02:32:02;;;;;;;3.10;3.00;;;10.00;48.00;;;;;;5071030;28;20415;-81
2022/02/21 02:34:28;;;;;;;3.90;3.30;;;10.00;49.30;;;;;;5070623;28;20452;-76
2022/02/21 02:36:53;;;;;;;3.83;3.30;;;10.00;49.80;;;;;;5070956;28;20459;-75
2022/02/21 02:39:19;;;;;;;3.20;3.10;;;10.00;50.50;;;;;;5071030;28;20183;-76
2022/02/21 02:41:45;;;;;;;3.30;3.20;;;10.00;50.50;;;;;;5071460;28;20178;-76
2022/02/21 02:44:11;;;;;;;2.70;2.70;;;10.00;51.40;;;;;;5071908;28;20236;-75
2022/02/21 02:46:37;;;;;;;3.17;3.07;;;10.00;52.50;;;;;;5071326;28;20405;-76
2022/02/21 02:49:03;;;;;;;3.50;3.30;;;10.00;53.10;;;;;;5075393;28;20419;-76
2022/02/21 02:51:29;;;;;;;3.03;2.80;;;9.80;55.70;;;;;;5075078;28;20175;-75
2022/02/21 02:53:55;;;;;;;2.97;2.87;;;9.80;56.60;;;;;;5075243;28;20423;-75
2022/02/21 02:56:21;;;;;;;2.97;2.77;;;9.80;56.20;;;;;;5074902;28;20423;-76
2022/02/21 02:58:46;;;;;;;3.10;2.90;;;9.80;57.10;;;;;;5075321;28;20412;-75
2022/02/21 03:01:12;;;;;;;4.63;3.00;;;9.80;56.50;;;;;;5074980;28;20178;-76
2022/02/21 03:03:38;;;;;;;2.93;2.83;;;9.70;57.00;;;;;;5074581;28;20179;-81
2022/02/21 03:06:04;;;;;;;3.40;3.10;;;9.70;57.40;;;;;;5074528;28;20217;-76
2022/02/21 03:08:30;;;;;;;2.70;2.60;;;9.80;56.00;;;;;;5074525;28;20420;-76
2022/02/21 03:10:56;;;;;;;3.10;3.00;;;9.80;54.60;;;;;;5074461;28;20171;-76
2022/02/21 03:13:21;;;;;;;3.10;3.00;;;9.70;55.30;;;;;;5074727;28;20178;-76
2022/02/21 03:15:47;;;;;;;3.10;3.00;;;9.80;55.30;;;;;;5074560;28;20457;-76
2022/02/21 03:18:12;;;;;;;3.20;3.10;;;9.80;53.60;;;;;;5074565;28;20184;-76
2022/02/21 03:20:38;;;;;;;3.00;2.90;;;9.80;53.70;;;;;;5092446;28;20619;-76
2022/02/21 03:23:04;;;;;;;3.10;3.00;;;9.90;52.80;;;;;;5074177;28;20213;-76
2022/02/21 03:25:29;;;;;;;3.60;3.50;;;9.90;51.70;;;;;;5074025;28;20206;-76
2022/02/21 03:27:56;;;;;;;3.50;3.40;;;10.00;50.20;;;;;;5073575;28;20261;-77
2022/02/21 03:30:22;;;;;;;2.77;2.70;;;10.00;50.60;;;;;;5074574;28;20568;-76
2022/02/21 03:32:48;;;;;;;3.13;3.00;;;10.00;50.80;;;;;;5073953;28;20421;-76
2022/02/21 03:35:14;;;;;;;3.33;3.13;;;10.00;51.30;;;;;;5074841;28;20423;-76
2022/02/21 03:37:39;;;;;;;3.30;3.20;;;10.00;51.40;;;;;;5074145;28;20182;-81
2022/02/21 03:40:07;;;;;;;2.90;2.90;;;10.10;51.50;;;;;;5074540;28;20209;-82
2022/02/21 03:42:33;;;;;;;3.17;3.07;;;10.20;51.30;;;;;;5074275;28;20867;-81
2022/02/21 03:44:59;;;;;;;4.37;4.07;;;9.40;51.80;;;;;;5074220;28;20976;-82
2022/02/21 03:47:25;;;;;;;4.88;4.60;;;8.00;51.60;;;;;;5073660;28;20409;-81
2022/02/21 03:49:51;;;;;;;4.30;4.20;;;6.80;59.70;;;;;;5092879;28;20169;-79
2022/02/21 03:52:17;;;;;;;7.20;7.00;;;6.00;64.80;;;;;;5074067;28;20900;-79
2022/02/21 03:54:42;;;;;;;10.23;9.90;;;5.40;70.80;;;;;;5073682;28;20537;-79
2022/02/21 03:57:08;;;;;;;11.20;10.80;;;5.30;75.40;;;;;;5074545;28;20215;-79
2022/02/21 03:59:34;;;;;;;11.07;10.70;;;5.20;78.70;;;;;;5073563;28;20174;-79
2022/02/21 04:02:00;;;;;;;11.27;10.87;;;5.10;78.50;;;;;;5073252;28;20183;-79
2022/02/21 04:04:25;;;;;;;9.17;8.77;;;5.00;78.10;;;;;;5073355;28;20198;-79
2022/02/21 04:06:51;;;;;;;9.30;8.80;;;4.90;82.20;;;;;;5073664;28;20409;-79
2022/02/21 04:09:17;;;;;;;9.27;8.97;;;4.80;81.20;;;;;;5073419;28;20779;-79
2022/02/21 04:11:42;;;;;;;10.70;10.30;;;4.60;84.20;;;;;;5073252;28;20606;-80
2022/02/21 04:14:08;;;;;;;9.50;9.20;;;4.50;83.20;;;;;;5073814;28;20215;-80
2022/02/21 04:16:34;;;;;;;8.67;8.27;;;4.50;85.10;;;;;;5072986;28;20271;-80
2022/02/21 04:19:02;;;;;;;10.00;9.50;;;4.50;88.30;;;;;;5073846;28;20171;-79
2022/02/21 04:21:29;;;;;;;9.80;9.50;;;4.50;85.50;;;;;;5073348;28;20417;-79
2022/02/21 04:23:55;;;;;;;10.30;9.90;;;4.40;88.10;;;;;;5073562;28;20757;-79
2022/02/21 04:26:20;;;;;;;9.53;9.13;;;4.30;85.80;;;;;;5073452;28;20416;-79
2022/02/21 04:28:46;;;;;;;9.77;9.37;;;4.40;85.20;;;;;;5073494;28;20171;-79
2022/02/21 04:31:14;;;;;;;9.33;8.83;;;4.30;81.70;;;;;;5073367;28;20188;-79
2022/02/21 04:33:39;;;;;;;9.50;8.90;;;4.30;83.60;;;;;;5072863;28;20175;-79
2022/02/21 04:36:05;;;;;;;10.43;9.93;;;4.30;85.70;;;;;;5073013;28;20431;-79
2022/02/21 04:38:31;;;;;;;10.70;10.10;;;4.30;81.90;;;;;;5072191;28;20637;-78
2022/02/21 04:40:57;;;;;;;11.27;10.60;;;4.30;80.50;;;;;;5072898;28;20213;-81
2022/02/21 04:43:23;;;;;;;11.93;11.53;;;4.30;81.70;;;;;;5073453;28;20689;-82
2022/02/21 04:45:54;;;;;;;12.20;11.60;;;4.30;77.40;;;;;;5072940;28;20202;-79
2022/02/21 04:48:24;;;;;;;11.67;11.17;;;4.30;79.00;;;;;;5073072;28;20623;-78
2022/02/21 04:50:51;;;;;;;12.80;12.00;;;4.30;82.80;;;;;;5072415;28;20783;-78
2022/02/21 04:53:17;;;;;;;11.57;10.97;;;4.30;80.80;;;;;;5073112;28;20408;-78
2022/02/21 04:55:43;;;;;;;11.37;10.87;;;4.40;82.80;;;;;;5072967;28;20475;-78
2022/02/21 04:58:08;;;;;;;11.60;11.10;;;4.40;83.80;;;;;;5072871;28;20413;-78
2022/02/21 05:00:34;;;;;;;11.20;10.53;;;4.30;81.00;;;;;;5072465;28;20440;-78
2022/02/21 05:03:00;;;;;;;12.07;11.30;;;4.40;84.00;;;;;;5072726;28;20206;-77
2022/02/21 05:05:26;;;;;;;12.53;11.90;;;4.40;82.90;;;;;;5083733;28;20217;-77
2022/02/21 05:07:51;;;;;;;11.23;10.73;;;4.50;82.40;;;;;;5094938;28;20209;-78
2022/02/21 05:10:17;;;;;;;14.17;13.27;;;4.50;79.70;;;;;;5108948;28;20618;-78
2022/02/21 05:12:43;;;;;;;13.30;12.37;;;4.50;80.10;;;;;;5105498;28;20178;-78
2022/02/21 05:15:10;;;;;;;13.00;12.10;;;4.60;81.10;;;;;;5100097;28;20178;-77
2022/02/21 05:17:36;;;;;;;12.93;12.20;;;4.60;80.70;;;;;;5096185;28;20431;-78
2022/02/21 05:20:04;;;;;;;14.40;13.50;;;4.60;77.60;;;;;;5072204;28;20443;-77
2022/02/21 05:22:29;;;;;;;14.43;13.43;;;4.60;79.10;;;;;;5085040;28;20480;-78
2022/02/21 05:24:56;;;;;;;12.13;11.30;;;4.70;75.50;;;;;;5086630;28;20467;-80
2022/02/21 05:27:22;;;;;;;13.77;12.73;;;4.80;77.40;;;;;;5084025;28;20170;-79
2022/02/21 05:29:47;;;;;;;13.53;12.50;;;4.70;79.10;;;;;;5081181;28;20909;-80
2022/02/21 05:32:13;;;;;;;13.23;12.27;;;4.70;77.50;;;;;;5092518;28;20253;-78
2022/02/21 05:34:39;;;;;;;15.80;14.27;;;4.80;76.40;;;;;;5093799;28;20208;-77
2022/02/21 05:37:06;;;;;;;13.17;12.47;;;4.80;71.00;;;;;;5075994;28;20182;-78
2022/02/21 05:39:32;;;;;;;14.07;12.93;;;4.80;77.10;;;;;;5087027;28;20516;-78
2022/02/21 05:41:58;;;;;;;13.83;12.87;;;4.80;76.90;;;;;;5087181;28;20967;-78
2022/02/21 05:44:24;;;;;;;14.23;13.23;;;4.90;76.80;;;;;;5083959;28;20463;-78
2022/02/21 05:46:49;;;;;;;16.70;15.10;;;4.90;75.50;;;;;;5092903;28;20464;-78
2022/02/21 05:49:18;;;;;;;16.57;15.37;;;4.90;71.40;;;;;;5107471;28;20170;-78
2022/02/21 05:51:44;;;;;;;13.53;12.73;;;4.90;68.30;;;;;;5110727;28;20226;-78
2022/02/21 05:54:10;;;;;;;15.37;14.33;;;4.90;75.10;;;;;;5104621;28;20412;-77
2022/02/21 05:56:35;;;;;;;16.93;15.50;;;4.90;73.00;;;;;;5108163;28;20174;-79
2022/02/21 05:59:02;;;;;;;16.73;15.47;;;4.90;74.70;;;;;;5108703;28;20283;-78
2022/02/21 06:01:27;;;;;;;16.10;14.97;;;5.00;71.30;;;;;;5102790;28;20178;-77
2022/02/21 06:03:53;;;;;;;16.57;15.43;;;5.00;74.40;;;;;;5089707;28;20427;-77
2022/02/21 06:06:18;;;;;;;16.73;15.20;;;5.00;73.00;;;;;;5100354;28;20178;-78
2022/02/21 06:08:44;;;;;;;15.17;13.73;;;5.00;68.60;;;;;;5094371;28;20272;-78
2022/02/21 06:11:10;;;;;;;16.57;15.47;;;5.00;69.90;;;;;;5094474;28;20172;-78
2022/02/21 06:13:35;;;;;;;14.30;13.30;;;5.00;70.30;;;;;;5093726;28;20176;-78
2022/02/21 06:16:01;;;;;;;18.67;17.47;;;5.10;76.10;;;;;;5089454;28;20221;-77
2022/02/21 06:18:27;;;;;;;17.43;15.90;;;5.00;67.90;;;;;;5095255;28;20587;-78
2022/02/21 06:20:53;;;;;;;17.73;15.93;;;5.10;69.30;;;;;;5104847;28;20428;-77
2022/02/21 06:23:19;;;;;;;16.60;15.20;;;5.10;73.00;;;;;;5105138;28;20238;-78
2022/02/21 06:25:46;;;;;;;20.73;19.10;;;5.00;73.30;;;;;;5107886;28;20471;-77
2022/02/21 06:28:12;;;;;;;20.37;18.63;;;5.10;67.20;;;;;;5102105;28;20922;-77
2022/02/21 06:30:39;;;;;;;20.27;18.77;;;5.00;67.70;;;;;;5102965;28;20515;-77
2022/02/21 06:33:05;;;;;;;19.80;18.43;;;5.00;63.90;;;;;;5098187;28;20416;-78
2022/02/21 06:35:31;;;;;;;20.97;19.50;;;5.10;67.10;;;;;;5101365;28;20420;-77
2022/02/21 06:37:59;;;;;;;18.47;17.27;;;5.10;69.00;;;;;;5115692;28;20439;-78
2022/02/21 06:40:26;;;;;;;19.97;18.10;;;5.00;72.80;;;;;;5089797;28;20428;-78
2022/02/21 06:42:54;;;;;;;18.90;17.70;;;5.00;68.60;;;;;;5096488;28;20426;-79
2022/02/21 06:45:22;;;;;;;18.43;17.03;;;5.00;67.50;;;;;;5102908;28;20468;-76
2022/02/21 06:47:48;;;;;;;17.63;16.50;;;5.10;71.50;;;;;;5082662;28;20963;-77
2022/02/21 06:50:14;;;;;;;16.87;15.63;;;5.00;72.60;;;;;;5097601;28;20508;-77
2022/02/21 06:52:39;;;;;;;17.03;15.93;;;5.00;74.60;;;;;;5087123;28;20197;-76
2022/02/21 06:55:07;;;;;;;19.30;17.93;;;5.00;71.70;;;;;;5092876;28;20227;-76
2022/02/21 06:57:33;;;;;;;18.53;17.17;;;5.00;67.60;;;;;;5107552;28;20201;-76
2022/02/21 06:59:59;;;;;;;17.30;16.10;;;5.00;71.20;;;;;;5102018;28;20500;-77
2022/02/21 07:02:24;;;;;;;17.43;16.20;;;5.10;72.40;;;;;;5106469;28;20502;-77
2022/02/21 07:04:50;;;;;;;17.53;16.30;;;5.00;68.60;;;;;;5111919;28;20228;-77
2022/02/21 07:07:16;;;;;;;17.17;16.20;;;5.00;67.60;;;;;;5093575;28;20197;-76
2022/02/21 07:09:41;;;;;;;20.50;19.00;;;4.90;71.90;;;;;;5107135;27;20226;-77
2022/02/21 07:12:07;;;;;;;19.17;17.90;;;4.90;62.80;;;;;;5116508;27;20176;-80
2022/02/21 07:14:34;;;;;;;21.40;19.73;;;4.90;66.50;;;;;;5085653;28;20174;-79
2022/02/21 07:17:00;;;;;;;22.40;20.77;;;4.80;62.20;;;;;;5102288;28;20458;-76
2022/02/21 07:19:26;;;;;;;21.37;19.77;;;4.80;59.30;;;;;;5108868;28;20404;-76
2022/02/21 07:21:52;;;;;;;22.50;20.70;;;4.80;65.10;;;;;;5097240;28;20186;-76
2022/02/21 07:24:17;;;;;;;22.40;20.90;;;4.70;58.00;;;;;;5095519;28;20268;-76
2022/02/21 07:26:43;;;;;;;21.63;20.53;;;4.70;62.20;;;;;;5095693;28;20466;-76
2022/02/21 07:29:08;;;;;;;22.33;20.73;;;4.70;61.80;;;;;;5113811;28;20261;-76
2022/02/21 07:31:34;;;;;;;21.23;19.50;;;4.70;61.40;;;;;;5095566;28;20541;-76
2022/02/21 07:34:01;;;;;;;21.17;19.67;;;4.70;59.40;;;;;;5094864;28;20177;-77
2022/02/21 07:36:27;;;;;;;21.27;19.57;;;4.80;65.80;;;;;;5095687;28;20213;-77
2022/02/21 07:38:53;;;;;;;20.40;18.97;;;4.80;63.40;;;;;;5095539;28;20412;-77
2022/02/21 07:41:19;;;;;;;20.00;18.33;;;4.80;59.30;;;;;;5095353;28;20759;-77
2022/02/21 07:43:44;;;;;;;23.33;21.30;;;4.80;60.40;;;;;;5095358;28;20178;-77
2022/02/21 07:46:10;;;;;;;23.50;22.00;;;4.80;59.10;;;;;;5095330;28;20213;-81
2022/02/21 07:48:36;;;;;;;22.70;20.97;;;4.80;57.00;;;;;;5094748;28;20174;-81
2022/02/21 07:51:02;;;;;;;22.50;20.90;;;4.80;57.10;;;;;;5083436;28;20435;-80
2022/02/21 07:53:28;;;;;;;24.57;22.83;;;4.80;60.00;;;;;;5101412;28;20900;-80
2022/02/21 07:55:54;;;;;;;25.20;23.30;;;4.80;55.80;;;;;;5111330;28;20473;-79
2022/02/21 07:58:19;;;;;;;29.30;27.53;;;5.00;56.20;;;;;;5112339;28;20570;-80
2022/02/21 08:00:45;;;;;;;31.27;28.92;;;5.00;55.50;;;;;;5111174;28;20423;-80
2022/02/21 08:03:10;;;;;;;31.73;29.67;;;5.00;55.00;;;;;;5108914;28;20557;-80
2022/02/21 08:05:36;;;;;;;28.20;26.73;;;4.90;56.40;;;;;;5098772;28;20666;-80
2022/02/21 08:08:03;;;;;;;31.33;29.10;;;4.90;53.70;;;;;;5105105;28;20180;-79
2022/02/21 08:10:29;;;;;;;33.77;31.07;;;5.00;61.80;;;;;;5103196;28;20626;-80
2022/02/21 08:12:54;;;;;;;30.93;28.93;;;5.00;61.10;;;;;;5113188;28;20407;-79
2022/02/21 08:15:20;;;;;;;29.63;27.50;;;5.10;60.20;;;;;;5103452;28;20920;-80
2022/02/21 08:17:47;;;;;;;30.70;28.70;;;5.20;58.30;;;;;;5060300;28;1086373;-80
2022/02/21 08:20:15;;;;;;;28.90;26.70;;;5.20;60.50;;;;;;5113089;28;20210;-80
2022/02/21 08:22:42;;;;;;;29.93;28.10;;;5.20;56.90;;;;;;5112472;28;20435;-79
2022/02/21 08:25:08;;;;;;;29.13;27.30;;;5.40;57.50;;;;;;5112962;28;20554;-80
2022/02/21 08:27:36;;;;;;;28.80;27.10;;;5.60;53.90;;;;;;5112571;28;20423;-80
2022/02/21 08:30:03;;;;;;;29.40;27.60;;;6.00;56.00;;;;;;5113067;28;20511;-81
2022/02/21 08:32:29;;;;;;;28.07;25.90;;;6.10;53.70;;;;;;5112296;28;20487;-79
2022/02/21 08:34:54;;;;;;;28.37;26.40;;;6.10;51.50;;;;;;5112681;28;20685;-80
2022/02/21 08:37:20;;;;;;;28.63;26.83;;;6.10;53.10;;;;;;5112582;28;20174;-80
2022/02/21 08:39:45;;;;;;;30.57;28.50;;;6.30;52.80;;;;;;5103906;28;20178;-81
2022/02/21 08:42:11;;;;;;;30.50;28.53;;;6.20;47.50;;;;;;5086115;28;20273;-81
2022/02/21 08:44:37;;;;;;;30.10;27.90;;;6.00;50.80;;;;;;5074224;28;20287;-81
2022/02/21 08:47:02;;;;;;;28.13;26.37;;;5.90;50.00;;;;;;5078482;28;20173;-81
2022/02/21 08:49:28;;;;;;;29.00;26.83;;;5.90;53.10;;;;;;5106832;28;20185;-81
2022/02/21 08:51:54;;;;;;;30.10;28.13;;;5.90;49.00;;;;;;5103793;28;20553;-81
2022/02/21 08:54:21;;;;;;;28.17;26.23;;;6.00;51.60;;;;;;5103474;28;20185;-81
2022/02/21 08:56:47;;;;;;;29.60;27.50;;;6.00;53.10;;;;;;5110208;28;20178;-81
2022/02/21 08:59:13;;;;;;;29.53;27.40;;;6.10;53.50;;;;;;5112155;28;20419;-81
2022/02/21 09:01:42;;;;;;;29.70;27.63;;;6.20;51.40;;;;;;5095283;28;20285;-81
2022/02/21 09:04:08;;;;;;;27.07;25.47;;;6.30;48.80;;;;;;5103121;28;20420;-78
2022/02/21 09:06:34;;;;;;;26.13;24.73;;;6.40;52.20;;;;;;5113353;28;20830;-78
2022/02/21 09:09:00;;;;;;;25.80;24.23;;;6.40;50.10;;;;;;5095005;28;20416;-78
2022/02/21 09:11:26;;;;;;;27.60;25.27;;;6.40;52.70;;;;;;5094410;28;20856;-78
2022/02/21 09:13:51;;;;;;;26.23;24.70;;;6.40;54.70;;;;;;5082891;28;20171;-78
2022/02/21 09:16:17;;;;;;;26.97;24.93;;;6.40;46.90;;;;;;5092439;28;20190;-78
2022/02/21 09:18:42;;;;;;;26.47;24.53;;;6.50;47.80;;;;;;5074576;28;20638;-77
2022/02/21 09:21:08;;;;;;;23.83;22.50;;;6.60;47.50;;;;;;5074385;28;20185;-78
2022/02/21 09:23:34;;;;;;;23.53;22.13;;;6.50;45.20;;;;;;5074359;28;20208;-78
2022/02/21 09:26:00;;;;;;;23.10;21.70;;;6.60;48.00;;;;;;5074269;28;20213;-77
2022/02/21 09:28:25;;;;;;;23.07;21.53;;;6.70;49.70;;;;;;5074407;28;20409;-77
2022/02/21 09:30:55;;;;;;;23.90;21.67;;;6.70;46.70;;;;;;5074271;28;20421;-77
2022/02/21 09:33:22;;;;;;;22.23;20.60;;;6.70;46.20;;;;;;5074202;28;20174;-78
2022/02/21 09:35:48;;;;;;;21.60;20.20;;;6.80;47.10;;;;;;5074176;28;20970;-78
2022/02/21 09:38:14;;;;;;;22.43;21.13;;;6.80;50.50;;;;;;5074422;28;20760;-78
2022/02/21 09:40:41;;;;;;;22.03;20.90;;;6.90;50.90;;;;;;5074143;28;20420;-78
2022/02/21 09:43:07;;;;;;;20.73;19.43;;;6.90;51.30;;;;;;5073907;28;20523;-78
2022/02/21 09:45:35;;;;;;;21.80;20.60;;;6.90;49.10;;;;;;5074129;28;20532;-78
2022/02/21 09:48:02;;;;;;;21.70;20.10;;;6.90;44.00;;;;;;5085228;28;20701;-78
2022/02/21 09:50:28;;;;;;;21.47;19.93;;;6.90;44.90;;;;;;5094224;28;20407;-78
2022/02/21 09:53:00;;;;;;;21.37;20.03;;;7.00;44.10;;;;;;5094141;28;20491;-78
2022/02/21 09:55:27;;;;;;;20.50;19.40;;;6.90;43.70;;;;;;5094122;28;20907;-78
2022/02/21 09:57:53;;;;;;;21.03;19.40;;;6.90;42.50;;;;;;5094045;28;20984;-78
2022/02/21 10:00:19;;;;;;;20.30;19.30;;;7.00;40.70;;;;;;5094198;28;20502;-78
2022/02/21 10:02:47;;;;;;;20.20;19.03;;;7.10;46.10;;;;;;5093996;28;20515;-78
2022/02/21 10:05:25;;;;;;;21.80;20.10;;;7.10;43.40;;;;;;5085230;28;20209;-77
2022/02/21 10:07:52;;;;;;;19.50;18.30;;;7.30;45.20;;;;;;5088336;28;20931;-77
2022/02/21 10:10:19;;;;;;;19.33;18.30;;;7.20;40.20;;;;;;5085246;28;21079;-78
2022/02/21 10:12:50;;;;;;;19.17;17.97;;;7.20;43.50;;;;;;5082624;28;20413;-78
2022/02/21 10:15:25;;;;;;;20.17;19.00;;;7.30;39.50;;;;;;5084079;28;20496;-77
2022/02/21 10:18:14;;;;;;;17.87;17.07;;;7.30;45.50;;;;;;5086073;28;20453;-77
2022/02/21 10:20:59;;;;;;;17.80;17.00;;;7.40;40.40;;;;;;5107447;28;20849;-78
2022/02/21 10:23:27;;;;;;;19.80;18.60;;;7.50;38.90;;;;;;5076468;28;20489;-78
2022/02/21 10:25:58;;;;;;;17.57;16.80;;;7.60;39.70;;;;;;5074342;28;20474;-77
2022/02/21 10:28:32;;;;;;;18.10;17.00;;;7.70;38.30;;;;;;5074132;28;20422;-78
2022/02/21 10:31:16;;;;;;;18.90;18.00;;;7.70;39.70;;;;;;5074207;28;20470;-78
2022/02/21 10:34:08;;;;;;;18.60;17.43;;;7.60;37.80;;;;;;5073774;28;20420;-78
2022/02/21 10:36:38;;;;;;;17.83;16.70;;;7.60;42.50;;;;;;5069341;28;20415;-78
2022/02/21 10:39:18;;;;;;;18.40;17.30;;;7.60;37.10;;;;;;5073845;28;20428;-78
2022/02/21 10:41:55;;;;;;;17.30;16.43;;;7.70;40.60;;;;;;5073608;28;20419;-78
2022/02/21 10:44:28;;;;;;;16.50;15.67;;;7.80;36.80;;;;;;5073543;28;20945;-78
2022/02/21 10:47:06;;;;;;;16.80;15.60;;;7.70;39.50;;;;;;5073539;28;20417;-78
2022/02/21 10:49:33;;;;;;;15.67;14.77;;;7.70;37.00;;;;;;5073744;28;20419;-78
2022/02/21 10:52:00;;;;;;;16.30;15.40;;;7.60;38.70;;;;;;5073685;28;20941;-78
2022/02/21 10:54:30;;;;;;;16.10;15.00;;;7.60;34.90;;;;;;5073526;28;20413;-78
2022/02/21 10:56:57;;;;;;;14.90;14.20;;;7.60;35.80;;;;;;5091702;28;20411;-78
2022/02/21 10:59:26;;;;;;;15.60;14.87;;;7.60;35.10;;;;;;5073570;28;20416;-78
2022/02/21 11:01:52;;;;;;;15.20;14.30;;;7.60;36.10;;;;;;5073302;28;20489;-78
2022/02/21 11:04:19;;;;;;;15.90;14.80;;;7.50;36.90;;;;;;5073353;28;20412;-78
2022/02/21 11:06:45;;;;;;;16.27;15.17;;;7.60;38.70;;;;;;5073099;28;20463;-78
2022/02/21 11:09:13;;;;;;;15.70;14.80;;;7.60;35.10;;;;;;5075914;28;20408;-78
2022/02/21 11:11:50;;;;;;;15.93;14.80;;;7.70;35.70;;;;;;5076826;28;20426;-78
2022/02/21 11:14:23;;;;;;;15.97;15.07;;;7.80;33.40;;;;;;5076940;28;20418;-78
2022/02/21 11:16:50;;;;;;;15.77;14.97;;;7.90;34.40;;;;;;5076799;28;20436;-78
2022/02/21 11:19:19;;;;;;;15.67;15.17;;;8.00;33.70;;;;;;5076101;28;20430;-77
2022/02/21 11:21:46;;;;;;;13.30;12.90;;;8.00;36.80;;;;;;5075533;28;20423;-78
2022/02/21 11:24:14;;;;;;;14.90;14.00;;;8.10;32.80;;;;;;5075444;28;20484;-77
2022/02/21 11:27:09;;;;;;;15.73;14.87;;;7.90;35.20;;;;;;5076529;28;20507;-77
2022/02/21 11:29:48;;;;;;;15.93;15.07;;;7.90;36.50;;;;;;5076446;28;20788;-77
2022/02/21 11:32:21;;;;;;;15.00;14.40;;;7.80;37.50;;;;;;5083521;28;20428;-77
2022/02/21 11:34:47;;;;;;;16.23;15.53;;;7.70;41.70;;;;;;5089763;28;20485;-77
2022/02/21 11:37:21;;;;;;;16.23;15.17;;;7.60;40.30;;;;;;5084453;28;20530;-77
2022/02/21 11:39:46;;;;;;;15.70;15.00;;;7.50;43.60;;;;;;5085450;27;21020;-77
2022/02/21 11:42:19;;;;;;;16.37;15.47;;;7.40;45.40;;;;;;5084572;28;21044;-78
2022/02/21 11:44:59;;;;;;;16.20;15.30;;;7.30;48.10;;;;;;5087168;27;20202;-78
2022/02/21 11:47:39;;;;;;;17.03;16.03;;;7.00;53.10;;;;;;5088067;28;20443;-78
2022/02/21 11:50:27;;;;;;;17.30;16.30;;;6.80;54.70;;;;;;5086126;28;20432;-77
2022/02/21 11:52:58;;;;;;;17.00;15.97;;;6.70;55.60;;;;;;5098108;27;20524;-77
2022/02/21 11:55:30;;;;;;;16.87;15.87;;;6.70;54.80;;;;;;5088132;28;20484;-77
2022/02/21 11:58:22;;;;;;;15.93;15.23;;;6.80;53.40;;;;;;5104380;27;20792;-77
2022/02/21 12:00:52;;;;;;;16.90;16.10;;;7.10;47.80;;;;;;5111293;27;20806;-77
2022/02/21 12:03:18;;;;;;;15.60;14.70;;;7.30;47.80;;;;;;5089280;28;20930;-78
2022/02/21 12:05:45;;;;;;;16.60;15.80;;;7.40;47.90;;;;;;5091658;28;20464;-77
2022/02/21 12:08:19;;;;;;;16.30;15.20;;;7.60;45.00;;;;;;5091655;28;20214;-81
2022/02/21 12:11:14;;;;;;;16.10;15.30;;;7.70;44.30;;;;;;5080410;27;20585;-81
2022/02/21 12:14:09;;;;;;;16.57;15.70;;;7.90;42.90;;;;;;5086949;28;20417;-81
2022/02/21 12:16:57;;;;;;;15.20;14.50;;;7.90;40.40;;;;;;5079093;28;20433;-83
2022/02/21 12:19:32;;;;;;;15.63;14.83;;;8.10;37.40;;;;;;5083472;28;20451;-81
2022/02/21 12:22:17;;;;;;;15.60;14.80;;;8.10;37.60;;;;;;5089623;27;20436;-83
2022/02/21 12:25:09;;;;;;;16.30;15.17;;;8.00;37.40;;;;;;5088342;27;20448;-82
2022/02/21 12:27:35;;;;;;;15.27;14.37;;;8.10;36.50;;;;;;5087902;28;20501;-83
2022/02/21 12:30:01;;;;;;;13.73;13.33;;;8.20;37.60;;;;;;5089259;28;20422;-82
2022/02/21 12:32:27;;;;;;;13.27;12.87;;;8.20;34.30;;;;;;5100648;27;20408;-81
2022/02/21 12:34:55;;;;;;;14.27;13.70;;;8.10;31.70;;;;;;5086733;28;20436;-81
2022/02/21 12:37:20;;;;;;;13.70;13.03;;;8.20;32.90;;;;;;5082524;28;20442;-83
2022/02/21 12:39:46;;;;;;;14.40;13.53;;;8.20;32.10;;;;;;5084622;28;20830;-82
2022/02/21 12:42:13;;;;;;;14.00;13.50;;;8.10;32.50;;;;;;5099114;28;20368;-81